createdAt,value
2022-09-27T00:02:16.943Z,99.90
2022-09-27T00:04:46.748Z,99.90
2022-09-27T00:07:14.669Z,99.90
2022-09-27T00:09:42.590Z,99.90
2022-09-27T00:12:12.064Z,99.90
2022-09-27T00:14:39.997Z,99.90
2022-09-27T00:17:11.156Z,99.90
2022-09-27T00:19:39.206Z,99.90
2022-09-27T00:22:07.122Z,99.90
2022-09-27T00:24:35.280Z,99.90
2022-09-27T00:27:03.251Z,99.90
2022-09-27T00:29:32.688Z,99.90
2022-09-27T00:32:00.626Z,99.90
2022-09-27T00:34:28.540Z,99.90
2022-09-27T00:36:56.909Z,99.90
2022-09-27T00:39:24.985Z,99.90
2022-09-27T00:41:53.046Z,99.90
2022-09-27T00:45:03.874Z,99.90
2022-09-27T00:47:42.022Z,99.90
2022-09-27T00:50:19.423Z,99.90
2022-09-27T00:52:55.167Z,99.90
2022-09-27T00:55:28.625Z,99.90
2022-09-27T00:57:57.510Z,99.90
2022-09-27T01:00:25.694Z,99.90
2022-09-27T01:02:57.950Z,99.90
2022-09-27T01:05:29.081Z,99.90
2022-09-27T01:07:59.831Z,99.90
2022-09-27T01:10:33.302Z,99.90
2022-09-27T01:13:10.124Z,99.90
2022-09-27T01:15:44.081Z,99.90
2022-09-27T01:18:25.237Z,99.90
2022-09-27T01:21:38.372Z,99.90
2022-09-27T01:24:43.187Z,99.90
2022-09-27T01:27:41.858Z,99.90
2022-09-27T01:30:22.220Z,99.90
2022-09-27T01:32:56.165Z,99.90
2022-09-27T01:35:32.032Z,99.90
2022-09-27T01:38:10.674Z,99.90
2022-09-27T01:40:44.610Z,99.90
2022-09-27T01:43:18.702Z,99.90
2022-09-27T01:45:55.421Z,99.90
2022-09-27T01:48:25.309Z,99.90
2022-09-27T01:50:58.169Z,99.90
2022-09-27T01:53:30.422Z,99.90
2022-09-27T01:56:03.555Z,99.90
2022-09-27T01:58:38.246Z,99.90
2022-09-27T02:01:09.183Z,99.90
2022-09-27T02:03:44.350Z,99.90
2022-09-27T02:06:15.912Z,99.90
2022-09-27T02:08:47.575Z,99.90
2022-09-27T02:11:16.512Z,99.90
2022-09-27T02:13:49.652Z,99.90
2022-09-27T02:16:26.237Z,99.90
2022-09-27T02:19:02.830Z,99.90
2022-09-27T02:21:42.137Z,99.90
2022-09-27T02:24:14.126Z,99.90
2022-09-27T02:26:46.322Z,99.90
2022-09-27T02:29:18.093Z,99.90
2022-09-27T02:31:49.461Z,99.90
2022-09-27T02:34:21.116Z,99.90
2022-09-27T02:36:49.373Z,99.90
2022-09-27T02:39:19.154Z,99.90
2022-09-27T02:41:47.203Z,99.90
2022-09-27T02:44:17.683Z,99.90
2022-09-27T02:47:24.413Z,99.90
2022-09-27T02:50:04.458Z,99.90
2022-09-27T02:52:43.400Z,99.90
2022-09-27T02:55:19.755Z,99.90
2022-09-27T02:57:59.203Z,99.90
2022-09-27T03:00:35.240Z,99.90
2022-09-27T03:03:10.629Z,99.90
2022-09-27T03:05:42.593Z,99.90
2022-09-27T03:08:11.988Z,99.90
2022-09-27T03:10:39.937Z,99.90
2022-09-27T03:13:09.708Z,99.90
2022-09-27T03:15:37.648Z,99.90
2022-09-27T03:18:07.583Z,99.90
2022-09-27T03:20:35.522Z,99.90
2022-09-27T03:23:03.426Z,99.90
2022-09-27T03:25:31.370Z,99.90
2022-09-27T03:27:59.288Z,99.90
2022-09-27T03:30:27.238Z,99.90
2022-09-27T03:32:55.121Z,99.90
2022-09-27T03:35:24.431Z,99.90
2022-09-27T03:37:52.345Z,99.90
2022-09-27T03:40:20.262Z,99.90
2022-09-27T03:42:50.089Z,99.90
2022-09-27T03:45:20.988Z,99.90
2022-09-27T03:47:49.055Z,99.90
2022-09-27T03:50:17.261Z,99.90
2022-09-27T03:52:46.608Z,99.90
2022-09-27T03:55:14.931Z,99.90
2022-09-27T03:57:46.808Z,99.90
2022-09-27T04:00:15.940Z,99.90
2022-09-27T04:02:43.970Z,99.90
2022-09-27T04:05:12.414Z,99.90
2022-09-27T04:07:40.348Z,99.90
2022-09-27T04:10:10.281Z,99.90
2022-09-27T04:12:40.505Z,99.90
2022-09-27T04:15:09.361Z,99.90
2022-09-27T04:17:37.278Z,99.90
2022-09-27T04:20:05.784Z,99.90
2022-09-27T04:22:33.732Z,99.90
2022-09-27T04:25:01.738Z,99.90
2022-09-27T04:27:30.991Z,99.90
2022-09-27T04:29:59.281Z,99.90
2022-09-27T04:32:27.366Z,99.90
2022-09-27T04:35:12.626Z,99.90
2022-09-27T04:37:41.861Z,99.90
2022-09-27T04:40:10.295Z,99.90
2022-09-27T04:42:39.579Z,99.90
2022-09-27T04:45:08.498Z,99.90
2022-09-27T04:47:36.404Z,99.90
2022-09-27T04:50:04.432Z,99.90
2022-09-27T04:52:32.728Z,99.90
2022-09-27T04:55:00.644Z,99.90
2022-09-27T04:57:28.513Z,99.90
2022-09-27T05:00:00.288Z,99.90
2022-09-27T05:02:28.565Z,99.90
2022-09-27T05:04:59.459Z,99.90
2022-09-27T05:07:27.676Z,99.90
2022-09-27T05:09:56.738Z,99.90
2022-09-27T05:12:26.811Z,99.90
2022-09-27T05:14:54.765Z,99.90
2022-09-27T05:17:23.994Z,99.90
2022-09-27T05:19:52.203Z,99.90
2022-09-27T05:22:20.246Z,99.90
2022-09-27T05:24:48.293Z,99.90
2022-09-27T05:27:20.565Z,99.90
2022-09-27T05:29:49.130Z,99.90
2022-09-27T05:32:17.289Z,99.90
2022-09-27T05:34:46.569Z,99.90
2022-09-27T05:37:14.484Z,99.90
2022-09-27T05:39:42.457Z,99.90
2022-09-27T05:42:12.195Z,99.90
2022-09-27T05:44:40.323Z,99.90
2022-09-27T05:47:08.237Z,99.90
2022-09-27T05:49:37.249Z,99.90
2022-09-27T05:52:06.509Z,99.90
2022-09-27T05:54:34.639Z,99.90
2022-09-27T05:57:02.532Z,99.90
2022-09-27T05:59:30.471Z,99.90
2022-09-27T06:01:58.422Z,99.90
2022-09-27T06:04:26.411Z,99.90
2022-09-27T06:06:54.560Z,99.90
2022-09-27T06:09:24.341Z,99.90
2022-09-27T06:11:52.229Z,99.90
2022-09-27T06:14:20.868Z,99.90
2022-09-27T06:16:48.833Z,99.90
2022-09-27T06:19:17.467Z,99.90
2022-09-27T06:21:45.384Z,99.90
2022-09-27T06:24:13.572Z,99.90
2022-09-27T06:26:42.753Z,99.90
2022-09-27T06:29:10.862Z,99.90
2022-09-27T06:31:38.754Z,99.90
2022-09-27T06:34:08.285Z,99.90
2022-09-27T06:36:36.205Z,99.90
2022-09-27T06:39:04.348Z,99.90
2022-09-27T06:41:33.328Z,99.90
2022-09-27T06:44:03.094Z,99.90
2022-09-27T06:46:31.010Z,99.90
2022-09-27T06:48:58.899Z,99.90
2022-09-27T06:51:26.752Z,99.90
2022-09-27T06:53:54.680Z,99.90
2022-09-27T06:56:22.596Z,99.90
2022-09-27T06:59:07.963Z,99.90
2022-09-27T07:01:37.233Z,99.90
2022-09-27T07:04:07.218Z,99.90
2022-09-27T07:06:35.144Z,99.90
2022-09-27T07:09:03.135Z,99.90
2022-09-27T07:11:31.163Z,99.90
2022-09-27T07:13:59.416Z,99.90
2022-09-27T07:16:27.486Z,99.90
2022-09-27T07:18:56.784Z,99.90
2022-09-27T07:21:24.834Z,99.90
2022-09-27T07:23:52.759Z,99.90
2022-09-27T07:26:20.658Z,99.90
2022-09-27T07:28:48.576Z,99.90
2022-09-27T07:31:17.119Z,99.90
2022-09-27T07:33:45.151Z,99.90
2022-09-27T07:36:15.071Z,99.90
2022-09-27T07:38:43.185Z,99.90
2022-09-27T07:41:14.160Z,99.90
2022-09-27T07:43:42.218Z,99.90
2022-09-27T07:46:11.174Z,99.90
2022-09-27T07:48:39.176Z,99.90
2022-09-27T07:51:08.414Z,99.90
2022-09-27T07:53:37.765Z,99.90
2022-09-27T07:56:05.845Z,99.90
2022-09-27T07:58:33.742Z,99.90
2022-09-27T08:01:02.480Z,99.90
2022-09-27T08:03:31.664Z,99.90
2022-09-27T08:06:04.149Z,99.90
2022-09-27T08:08:32.209Z,99.90
2022-09-27T08:11:01.475Z,99.90
2022-09-27T08:13:29.614Z,98.90
2022-09-27T08:16:03.009Z,97.70
2022-09-27T08:18:30.958Z,96.20
2022-09-27T08:20:58.984Z,94.50
2022-09-27T08:23:26.939Z,95.00
2022-09-27T08:25:55.184Z,96.00
2022-09-27T08:28:24.567Z,96.00
2022-09-27T08:30:52.498Z,97.00
2022-09-27T08:33:20.383Z,97.00
2022-09-27T08:35:48.245Z,97.40
2022-09-27T08:38:16.113Z,97.50
2022-09-27T08:40:54.554Z,97.80
2022-09-27T08:43:33.906Z,97.40
2022-09-27T08:46:12.143Z,96.70
2022-09-27T08:48:41.076Z,97.40
2022-09-27T08:51:14.652Z,97.80
2022-09-27T08:53:49.287Z,97.50
2022-09-27T08:56:21.193Z,97.60
2022-09-27T08:58:53.977Z,98.20
2022-09-27T09:01:26.338Z,98.10
2022-09-27T09:04:00.824Z,96.10
2022-09-27T09:06:32.124Z,95.00
2022-09-27T09:09:10.292Z,95.00
2022-09-27T09:12:10.407Z,94.70
2022-09-27T09:15:11.593Z,90.60
2022-09-27T09:17:56.310Z,90.20
2022-09-27T09:20:41.361Z,90.20
2022-09-27T09:23:39.827Z,90.70
2022-09-27T09:26:15.350Z,88.50
2022-09-27T09:28:58.297Z,89.00
2022-09-27T09:31:35.699Z,88.70
2022-09-27T09:34:11.206Z,87.00
2022-09-27T09:36:45.398Z,85.30
2022-09-27T09:39:17.847Z,80.30
2022-09-27T09:42:06.266Z,77.10
2022-09-27T09:44:41.806Z,77.00
2022-09-27T09:47:20.185Z,72.80
2022-09-27T09:49:52.828Z,70.40
2022-09-27T09:52:24.607Z,66.70
2022-09-27T09:54:57.358Z,67.40
2022-09-27T09:57:29.552Z,65.60
2022-09-27T10:00:01.199Z,63.10
2022-09-27T10:02:35.929Z,57.30
2022-09-27T10:05:07.904Z,56.30
2022-09-27T10:07:38.461Z,51.60
2022-09-27T10:10:08.562Z,51.00
2022-09-27T10:12:37.590Z,51.70
2022-09-27T10:15:06.837Z,53.10
2022-09-27T10:17:39.723Z,56.30
2022-09-27T10:20:08.781Z,55.90
2022-09-27T10:22:39.777Z,56.60
2022-09-27T10:25:09.338Z,56.10
2022-09-27T10:27:41.934Z,54.60
2022-09-27T10:30:28.858Z,55.20
2022-09-27T10:33:01.176Z,53.70
2022-09-27T10:35:37.979Z,53.80
2022-09-27T10:38:27.657Z,55.50
2022-09-27T10:40:57.149Z,51.90
2022-09-27T10:43:31.243Z,52.30
2022-09-27T10:46:10.747Z,46.80
2022-09-27T10:48:42.040Z,43.50
2022-09-27T10:51:25.670Z,44.10
2022-09-27T10:53:54.115Z,47.00
2022-09-27T10:56:25.132Z,51.70
2022-09-27T10:58:53.737Z,51.40
2022-09-27T11:01:22.105Z,48.20
2022-09-27T11:03:53.961Z,47.90
2022-09-27T11:06:37.797Z,45.20
2022-09-27T11:09:19.715Z,44.80
2022-09-27T11:11:47.818Z,43.20
2022-09-27T11:14:21.850Z,44.90
2022-09-27T11:17:00.290Z,45.40
2022-09-27T11:19:43.446Z,45.90
2022-09-27T11:22:31.231Z,48.10
2022-09-27T11:25:14.691Z,48.70
2022-09-27T11:27:58.101Z,50.50
2022-09-27T11:30:30.391Z,52.30
2022-09-27T11:33:12.927Z,48.70
2022-09-27T11:35:56.895Z,47.30
2022-09-27T11:38:51.534Z,46.80
2022-09-27T11:41:33.210Z,45.90
2022-09-27T11:44:19.677Z,48.00
2022-09-27T11:46:54.218Z,50.50
2022-09-27T11:49:47.393Z,51.70
2022-09-27T11:52:27.413Z,49.40
2022-09-27T11:55:19.514Z,53.20
2022-09-27T11:57:55.091Z,55.20
2022-09-27T12:00:24.712Z,61.60
2022-09-27T12:03:27.734Z,63.40
2022-09-27T12:06:07.634Z,67.40
2022-09-27T12:08:55.596Z,71.50
2022-09-27T12:11:30.368Z,76.60
2022-09-27T12:14:00.681Z,77.40
2022-09-27T12:16:31.349Z,85.40
2022-09-27T12:19:01.881Z,90.50
2022-09-27T12:21:32.701Z,90.70
2022-09-27T12:24:04.444Z,87.90
2022-09-27T12:26:38.604Z,87.30
2022-09-27T12:29:13.995Z,88.80
2022-09-27T12:31:47.497Z,91.70
2022-09-27T12:34:20.289Z,92.60
2022-09-27T12:36:52.641Z,94.20
2022-09-27T12:39:26.018Z,94.30
2022-09-27T12:42:01.922Z,94.30
2022-09-27T12:44:32.736Z,96.40
2022-09-27T12:47:08.461Z,99.00
2022-09-27T12:49:49.343Z,99.30
2022-09-27T12:52:25.370Z,96.50
2022-09-27T12:55:10.963Z,96.70
2022-09-27T12:57:49.624Z,97.90
2022-09-27T13:00:22.059Z,99.10
2022-09-27T13:03:30.860Z,99.40
2022-09-27T13:06:13.986Z,99.20
2022-09-27T13:09:00.119Z,99.30
2022-09-27T13:11:38.954Z,97.70
2022-09-27T13:14:11.395Z,99.00
2022-09-27T13:16:44.234Z,99.90
2022-09-27T13:19:39.988Z,99.90
2022-09-27T13:22:09.297Z,99.90
2022-09-27T13:24:51.000Z,99.90
2022-09-27T13:27:40.216Z,97.50
2022-09-27T13:30:41.487Z,95.10
2022-09-27T13:33:45.199Z,92.10
2022-09-27T13:36:31.266Z,94.20
2022-09-27T13:39:07.693Z,94.20
2022-09-27T13:41:55.914Z,94.70
2022-09-27T13:44:32.021Z,95.30
2022-09-27T13:47:02.400Z,97.70
2022-09-27T13:49:37.527Z,96.20
2022-09-27T13:52:20.548Z,97.50
2022-09-27T13:54:53.389Z,99.00
2022-09-27T13:57:44.067Z,99.90
2022-09-27T14:00:16.074Z,99.90
2022-09-27T14:02:55.211Z,99.90
2022-09-27T14:05:28.713Z,99.90
2022-09-27T14:07:59.767Z,99.90
2022-09-27T14:10:30.275Z,99.90
2022-09-27T14:13:01.868Z,99.90
2022-09-27T14:15:32.969Z,99.90
2022-09-27T14:18:01.092Z,99.90
2022-09-27T14:20:34.615Z,99.90
2022-09-27T14:23:04.662Z,99.90
2022-09-27T14:25:32.895Z,99.90
2022-09-27T14:28:00.771Z,99.90
2022-09-27T14:30:31.916Z,99.90
2022-09-27T14:33:00.681Z,99.90
2022-09-27T14:35:48.302Z,99.90
2022-09-27T14:38:36.662Z,99.90
2022-09-27T14:41:07.252Z,99.90
2022-09-27T14:43:37.116Z,94.90
2022-09-27T14:46:08.469Z,95.30
2022-09-27T14:48:38.757Z,94.90
2022-09-27T14:51:20.851Z,91.70
2022-09-27T14:53:51.555Z,89.90
2022-09-27T14:56:22.635Z,89.40
2022-09-27T14:58:56.574Z,86.10
2022-09-27T15:01:26.080Z,83.90
2022-09-27T15:03:54.673Z,83.60
2022-09-27T15:06:24.680Z,84.40
2022-09-27T15:08:53.960Z,83.40
2022-09-27T15:11:22.038Z,84.40
2022-09-27T15:13:54.115Z,82.80
2022-09-27T15:16:23.643Z,79.90
2022-09-27T15:19:03.666Z,77.90
2022-09-27T15:21:34.110Z,77.40
2022-09-27T15:24:02.958Z,74.20
2022-09-27T15:26:38.354Z,74.20
2022-09-27T15:29:06.727Z,73.80
2022-09-27T15:31:36.593Z,73.90
2022-09-27T15:34:06.884Z,73.70
2022-09-27T15:37:00.028Z,74.60
2022-09-27T15:39:30.149Z,74.70
2022-09-27T15:42:09.868Z,74.50
2022-09-27T15:44:49.617Z,72.70
2022-09-27T15:47:43.358Z,73.30
2022-09-27T15:50:37.921Z,74.00
2022-09-27T15:53:06.979Z,74.20
2022-09-27T15:55:40.123Z,74.40
2022-09-27T15:58:14.726Z,74.50
2022-09-27T16:00:52.828Z,75.20
2022-09-27T16:03:20.836Z,73.90
2022-09-27T16:05:50.092Z,73.10
2022-09-27T16:08:18.050Z,70.90
2022-09-27T16:10:49.403Z,71.20
2022-09-27T16:13:17.349Z,71.00
2022-09-27T16:15:46.171Z,70.30
2022-09-27T16:18:14.884Z,70.90
2022-09-27T16:20:43.136Z,71.00
2022-09-27T16:23:12.613Z,71.00
2022-09-27T16:25:40.510Z,71.90
2022-09-27T16:28:09.700Z,71.50
2022-09-27T16:30:37.570Z,71.80
2022-09-27T16:33:05.457Z,73.50
2022-09-27T16:35:33.342Z,72.50
2022-09-27T16:38:01.219Z,72.40
2022-09-27T16:40:30.799Z,72.40
2022-09-27T16:42:58.745Z,74.10
2022-09-27T16:45:33.457Z,73.70
2022-09-27T16:48:01.906Z,74.00
2022-09-27T16:50:47.248Z,75.00
2022-09-27T16:53:15.984Z,78.40
2022-09-27T16:55:45.319Z,79.60
2022-09-27T16:58:13.204Z,79.20
2022-09-27T17:00:41.939Z,78.80
2022-09-27T17:03:10.180Z,78.50
2022-09-27T17:05:38.081Z,80.30
2022-09-27T17:08:06.299Z,81.90
2022-09-27T17:10:35.811Z,80.30
2022-09-27T17:13:05.129Z,78.00
2022-09-27T17:15:33.005Z,78.30
2022-09-27T17:18:00.827Z,77.80
2022-09-27T17:20:28.697Z,78.00
2022-09-27T17:22:57.244Z,78.10
2022-09-27T17:25:25.144Z,78.10
2022-09-27T17:27:53.069Z,77.90
2022-09-27T17:30:23.044Z,78.30
2022-09-27T17:32:51.138Z,77.70
2022-09-27T17:35:19.057Z,78.40
2022-09-27T17:37:46.935Z,78.50
2022-09-27T17:40:16.197Z,78.00
2022-09-27T17:42:44.148Z,78.90
2022-09-27T17:45:12.329Z,79.00
2022-09-27T17:47:55.456Z,79.30
2022-09-27T17:50:27.414Z,81.90
2022-09-27T17:52:57.415Z,82.60
2022-09-27T17:55:25.751Z,83.50
2022-09-27T17:57:53.640Z,83.60
2022-09-27T18:00:21.686Z,83.80
2022-09-27T18:02:51.188Z,83.90
2022-09-27T18:05:21.210Z,83.10
2022-09-27T18:07:49.258Z,83.70
2022-09-27T18:10:18.076Z,84.30
2022-09-27T18:12:45.952Z,84.60
2022-09-27T18:15:17.882Z,84.20
2022-09-27T18:17:45.830Z,84.10
2022-09-27T18:20:15.270Z,84.50
2022-09-27T18:22:43.117Z,84.50
2022-09-27T18:25:11.893Z,84.50
2022-09-27T18:27:40.321Z,83.70
2022-09-27T18:30:09.658Z,83.20
2022-09-27T18:32:37.616Z,83.30
2022-09-27T18:35:06.949Z,83.20
2022-09-27T18:37:36.445Z,83.40
2022-09-27T18:40:04.570Z,82.60
2022-09-27T18:42:32.457Z,82.60
2022-09-27T18:45:00.392Z,82.60
2022-09-27T18:47:28.369Z,82.90
2022-09-27T18:49:56.292Z,83.00
2022-09-27T18:52:24.405Z,82.90
2022-09-27T18:54:53.687Z,83.00
2022-09-27T18:57:21.575Z,83.50
2022-09-27T18:59:49.454Z,83.50
2022-09-27T19:02:17.374Z,83.30
2022-09-27T19:04:45.255Z,84.50
2022-09-27T19:07:13.101Z,85.20
2022-09-27T19:09:41.191Z,85.00
2022-09-27T19:12:10.429Z,85.30
2022-09-27T19:14:48.198Z,86.20
2022-09-27T19:17:16.023Z,86.10
2022-09-27T19:19:43.955Z,85.30
2022-09-27T19:22:11.795Z,85.80
2022-09-27T19:24:39.673Z,85.10
2022-09-27T19:27:07.544Z,84.80
2022-09-27T19:29:37.173Z,84.90
2022-09-27T19:32:05.075Z,85.50
2022-09-27T19:34:33.049Z,86.30
2022-09-27T19:37:00.953Z,87.20
2022-09-27T19:39:28.846Z,87.50
2022-09-27T19:41:56.702Z,87.10
2022-09-27T19:44:25.962Z,87.40
2022-09-27T19:46:55.334Z,87.20
2022-09-27T19:49:23.262Z,87.90
2022-09-27T19:51:52.027Z,88.10
2022-09-27T19:54:19.959Z,87.90
2022-09-27T19:56:49.248Z,88.50
2022-09-27T19:59:17.381Z,87.90
2022-09-27T20:01:45.363Z,87.00
2022-09-27T20:04:15.081Z,86.30
2022-09-27T20:06:42.981Z,86.40
2022-09-27T20:09:10.945Z,86.20
2022-09-27T20:11:38.787Z,85.90
2022-09-27T20:14:06.661Z,85.90
2022-09-27T20:16:36.988Z,85.40
2022-09-27T20:19:10.331Z,84.80
2022-09-27T20:21:39.687Z,84.70
2022-09-27T20:24:07.692Z,85.00
2022-09-27T20:26:36.484Z,85.10
2022-09-27T20:29:06.224Z,85.60
2022-09-27T20:31:37.758Z,85.70
2022-09-27T20:34:07.284Z,86.60
2022-09-27T20:36:37.337Z,87.00
2022-09-27T20:39:08.001Z,87.00
2022-09-27T20:41:37.564Z,87.90
2022-09-27T20:44:07.153Z,88.20
2022-09-27T20:46:36.511Z,88.60
2022-09-27T20:49:06.985Z,88.50
2022-09-27T20:51:36.926Z,88.50
2022-09-27T20:54:07.985Z,89.50
2022-09-27T20:56:37.583Z,90.00
2022-09-27T20:59:09.389Z,90.20
2022-09-27T21:01:43.514Z,91.00
2022-09-27T21:04:12.765Z,91.90
2022-09-27T21:06:40.990Z,92.10
2022-09-27T21:09:11.248Z,92.30
2022-09-27T21:11:39.116Z,92.00
2022-09-27T21:14:07.014Z,91.90
2022-09-27T21:16:36.586Z,91.80
2022-09-27T21:19:04.489Z,92.20
2022-09-27T21:21:32.363Z,92.30
2022-09-27T21:24:01.976Z,92.40
2022-09-27T21:26:32.723Z,92.60
2022-09-27T21:29:02.452Z,92.80
2022-09-27T21:31:32.668Z,93.20
2022-09-27T21:34:03.359Z,93.90
2022-09-27T21:36:32.685Z,94.20
2022-09-27T21:39:00.953Z,94.50
2022-09-27T21:41:29.522Z,94.90
2022-09-27T21:43:58.761Z,95.70
2022-09-27T21:46:28.419Z,96.70
2022-09-27T21:48:58.102Z,98.00
2022-09-27T21:51:27.650Z,98.90
2022-09-27T21:53:57.411Z,99.90
2022-09-27T21:56:27.433Z,99.90
2022-09-27T21:58:55.758Z,99.90
2022-09-27T22:01:27.664Z,99.90
2022-09-27T22:03:55.590Z,99.90
2022-09-27T22:06:25.966Z,99.90
2022-09-27T22:08:54.869Z,99.90
2022-09-27T22:11:24.700Z,99.90
2022-09-27T22:13:52.843Z,99.90
2022-09-27T22:16:22.516Z,99.90
2022-09-27T22:18:54.340Z,99.90
2022-09-27T22:21:23.940Z,99.90
2022-09-27T22:23:54.976Z,99.90
2022-09-27T22:26:24.893Z,99.90
2022-09-27T22:28:53.221Z,99.90
2022-09-27T22:31:22.436Z,99.90
2022-09-27T22:33:53.269Z,99.90
2022-09-27T22:36:21.365Z,99.90
2022-09-27T22:38:49.665Z,99.90
2022-09-27T22:41:17.909Z,99.90
2022-09-27T22:43:45.937Z,99.90
2022-09-27T22:46:14.145Z,99.90
2022-09-27T22:48:42.311Z,99.90
2022-09-27T22:51:11.553Z,99.90
2022-09-27T22:53:39.705Z,99.90
2022-09-27T22:56:09.632Z,99.90
2022-09-27T22:58:38.555Z,99.90
2022-09-27T23:01:10.236Z,99.90
2022-09-27T23:03:38.304Z,99.90
2022-09-27T23:06:07.989Z,99.90
2022-09-27T23:08:38.420Z,99.90
2022-09-27T23:11:08.294Z,99.90
2022-09-27T23:13:38.636Z,99.90
2022-09-27T23:16:08.831Z,99.90
2022-09-27T23:18:37.264Z,99.90
2022-09-27T23:21:08.132Z,99.90
2022-09-27T23:23:40.609Z,99.90
2022-09-27T23:26:10.524Z,99.90
2022-09-27T23:28:38.881Z,99.90
2022-09-27T23:31:08.723Z,99.90
2022-09-27T23:33:37.691Z,99.90
2022-09-27T23:36:05.973Z,99.90
2022-09-27T23:38:34.472Z,99.90
2022-09-27T23:41:03.674Z,99.90
2022-09-27T23:43:31.512Z,99.90
2022-09-27T23:45:59.440Z,99.90
2022-09-27T23:48:27.895Z,99.90
2022-09-27T23:50:56.721Z,99.90
2022-09-27T23:53:25.468Z,99.90
2022-09-27T23:56:02.355Z,99.90
2022-09-27T23:58:33.742Z,99.90
